Time;durP1;ratioP1;P1;durP2;ratioP2;P2;SDS_P1;SDS_P2;PMS_P1;PMS_P2;Temp;Humidity;BMP_temperature;BMP_pressure;BME280_temperature;BME280_humidity;BME280_pressure;Samples;Min_cycle;Max_cycle;Signal;HPM_P1;HPM_P2
2023/10/15 00:01:10;;;;;;;;;;;8.30;99.90;;;;;;5134017;27;19939;-45
2023/10/15 00:03:36;;;;;;;;;;;8.30;99.90;;;;;;5131686;27;19963;-45
2023/10/15 00:06:01;;;;;;;;;;;8.30;99.90;;;;;;5131902;27;19920;-45
2023/10/15 00:08:27;;;;;;;;;;;8.20;99.90;;;;;;5133961;27;19915;-44
2023/10/15 00:10:52;;;;;;;;;;;8.20;99.90;;;;;;5118217;27;19916;-46
2023/10/15 00:13:18;;;;;;;;;;;8.20;99.90;;;;;;5113346;28;19911;-45
2023/10/15 00:15:43;;;;;;;;;;;8.20;99.90;;;;;;5113204;28;19914;-47
2023/10/15 00:18:10;;;;;;;;;;;8.10;99.90;;;;;;5113189;28;19915;-45
2023/10/15 00:20:36;;;;;;;;;;;8.10;99.90;;;;;;5113262;28;20278;-43
2023/10/15 00:23:04;;;;;;;;;;;8.10;99.90;;;;;;5113471;28;19912;-46
2023/10/15 00:25:34;;;;;;;;;;;8.10;99.90;;;;;;5127553;28;19920;-45
2023/10/15 00:28:01;;;;;;;;;;;8.00;99.90;;;;;;5133645;28;19915;-44
2023/10/15 00:30:32;;;;;;;;;;;8.00;99.90;;;;;;5128521;28;19964;-46
2023/10/15 00:32:59;;;;;;;;;;;7.90;99.90;;;;;;5113100;28;19914;-46
2023/10/15 00:35:25;;;;;;;;;;;7.80;99.90;;;;;;5132606;28;19911;-47
2023/10/15 00:37:57;;;;;;;;;;;7.70;99.90;;;;;;5133301;28;19971;-47
2023/10/15 00:40:23;;;;;;;;;;;7.70;99.90;;;;;;5123793;28;19911;-47
2023/10/15 00:42:49;;;;;;;;;;;7.60;99.90;;;;;;5128211;28;19918;-45
2023/10/15 00:45:15;;;;;;;;;;;7.60;99.90;;;;;;5127307;28;20297;-46
2023/10/15 00:47:41;;;;;;;;;;;7.60;99.90;;;;;;5132485;28;19915;-48
2023/10/15 00:50:07;;;;;;;;;;;7.50;99.90;;;;;;5124895;28;20421;-46
2023/10/15 00:52:37;;;;;;;;;;;7.50;99.90;;;;;;5136183;27;20000;-46
2023/10/15 00:55:05;;;;;;;;;;;7.50;99.90;;;;;;5136024;27;20002;-47
2023/10/15 00:57:41;;;;;;;;;;;7.50;99.90;;;;;;5127992;27;20389;-46
2023/10/15 01:00:29;;;;;;;;;;;7.50;99.90;;;;;;5123565;27;20002;-45
2023/10/15 01:02:56;;;;;;;;;;;7.50;99.90;;;;;;5128974;27;20004;-47
2023/10/15 01:05:24;;;;;;;;;;;7.50;99.90;;;;;;5133830;27;19930;-46
2023/10/15 01:07:51;;;;;;;;;;;7.40;99.90;;;;;;5125440;27;20006;-46
2023/10/15 01:10:28;;;;;;;;;;;7.40;99.90;;;;;;5128765;27;19912;-47
2023/10/15 01:13:10;;;;;;;;;;;7.40;99.90;;;;;;5119503;27;20307;-45
2023/10/15 01:15:41;;;;;;;;;;;7.40;99.90;;;;;;5127770;27;19919;-46
2023/10/15 01:18:07;;;;;;;;;;;7.40;99.90;;;;;;5136246;27;20350;-47
2023/10/15 01:20:35;;;;;;;;;;;7.40;99.90;;;;;;5118645;27;19918;-47
2023/10/15 01:23:01;;;;;;;;;;;7.40;99.90;;;;;;5128795;27;19916;-47
2023/10/15 01:25:26;;;;;;;;;;;7.50;99.90;;;;;;5119037;27;19919;-47
2023/10/15 01:27:58;;;;;;;;;;;7.50;99.90;;;;;;5116376;27;20345;-45
2023/10/15 01:30:26;;;;;;;;;;;7.40;99.90;;;;;;5124246;27;19911;-48
2023/10/15 01:32:52;;;;;;;;;;;7.40;99.90;;;;;;5121927;27;19923;-47
2023/10/15 01:35:19;;;;;;;;;;;7.40;99.90;;;;;;5129678;27;19911;-47
2023/10/15 01:37:57;;;;;;;;;;;7.50;99.90;;;;;;5134238;27;20373;-46
2023/10/15 01:40:44;;;;;;;;;;;7.40;99.90;;;;;;5126841;27;20354;-46
2023/10/15 01:43:14;;;;;;;;;;;7.40;99.90;;;;;;5129247;27;19912;-46
2023/10/15 01:45:41;;;;;;;;;;;7.40;99.90;;;;;;5121864;27;20411;-45
2023/10/15 01:48:16;;;;;;;;;;;7.50;99.90;;;;;;5134099;27;19915;-46
2023/10/15 01:50:46;;;;;;;;;;;7.50;99.90;;;;;;5136470;27;19946;-46
2023/10/15 01:53:12;;;;;;;;;;;7.40;99.90;;;;;;5136587;27;19986;-47
2023/10/15 01:55:45;;;;;;;;;;;7.50;99.90;;;;;;5119989;27;20318;-46
2023/10/15 01:58:12;;;;;;;;;;;7.50;99.90;;;;;;5119297;27;19955;-46
2023/10/15 02:03:04;;;;;;;;;;;7.30;99.90;;;;;;5123896;27;19918;-45
2023/10/15 02:05:41;;;;;;;;;;;7.30;99.90;;;;;;5116794;27;20278;-45
2023/10/15 02:08:07;;;;;;;;;;;7.30;99.90;;;;;;5124974;27;19995;-47
2023/10/15 02:10:35;;;;;;;;;;;7.20;99.90;;;;;;5116251;27;19919;-46
2023/10/15 02:13:04;;;;;;;;;;;7.20;99.90;;;;;;5114314;27;19962;-45
2023/10/15 02:15:32;;;;;;;;;;;7.20;99.90;;;;;;5126487;27;19916;-46
2023/10/15 02:17:59;;;;;;;;;;;7.10;99.90;;;;;;5126711;27;19953;-45
2023/10/15 02:23:10;;;;;;;;;;;7.10;99.90;;;;;;5133892;27;19919;-47
2023/10/15 02:25:44;;;;;;;;;;;7.10;99.90;;;;;;5134264;27;19920;-45
2023/10/15 02:28:10;;;;;;;;;;;7.00;99.90;;;;;;5135854;27;19907;-45
2023/10/15 02:30:35;;;;;;;;;;;7.00;99.90;;;;;;5135702;27;20392;-45
2023/10/15 02:33:01;;;;;;;;;;;7.00;99.90;;;;;;5127920;27;20289;-45
2023/10/15 02:35:31;;;;;;;;;;;7.00;99.90;;;;;;5115074;28;19998;-45
2023/10/15 02:37:58;;;;;;;;;;;6.90;99.90;;;;;;5113814;27;19924;-45
2023/10/15 02:40:35;;;;;;;;;;;6.90;99.90;;;;;;5114615;27;20053;-46
2023/10/15 02:43:06;;;;;;;;;;;6.90;99.90;;;;;;5114894;28;19908;-44
2023/10/15 02:45:35;;;;;;;;;;;6.90;99.90;;;;;;5120877;27;20396;-45
2023/10/15 02:48:10;;;;;;;;;;;6.80;99.90;;;;;;5130208;27;19911;-46
2023/10/15 02:50:36;;;;;;;;;;;6.90;99.90;;;;;;5114810;28;19996;-45
2023/10/15 02:53:05;;;;;;;;;;;6.90;99.90;;;;;;5114760;28;20346;-46
2023/10/15 02:55:36;;;;;;;;;;;6.90;99.90;;;;;;5113980;27;19912;-47
2023/10/15 02:58:02;;;;;;;;;;;7.00;99.90;;;;;;5114605;28;19912;-46
2023/10/15 03:00:28;;;;;;;;;;;7.00;99.90;;;;;;5114598;28;19954;-57
2023/10/15 03:02:54;;;;;;;;;;;7.00;99.90;;;;;;5113789;27;19908;-57
2023/10/15 03:05:25;;;;;;;;;;;7.10;99.90;;;;;;5114391;28;19939;-57
2023/10/15 03:07:51;;;;;;;;;;;7.10;99.90;;;;;;5114402;28;19908;-56
2023/10/15 03:10:21;;;;;;;;;;;7.10;99.90;;;;;;5114090;28;20003;-57
2023/10/15 03:12:47;;;;;;;;;;;7.00;99.90;;;;;;5114391;28;19907;-56
2023/10/15 03:15:17;;;;;;;;;;;7.00;99.90;;;;;;5116631;27;19911;-57
2023/10/15 03:17:45;;;;;;;;;;;7.00;99.90;;;;;;5134562;27;20479;-57
2023/10/15 03:22:44;;;;;;;;;;;6.80;99.90;;;;;;5114145;28;19915;-50
2023/10/15 03:25:13;;;;;;;;;;;6.80;99.90;;;;;;5115198;27;20286;-51
2023/10/15 03:27:46;;;;;;;;;;;6.80;99.90;;;;;;5114353;27;19941;-52
2023/10/15 03:30:13;;;;;;;;;;;6.70;99.90;;;;;;5113375;28;19970;-53
2023/10/15 03:32:44;;;;;;;;;;;6.70;99.90;;;;;;5113859;28;19907;-53
2023/10/15 03:35:32;;;;;;;;;;;6.70;99.90;;;;;;5113265;27;19911;-52
2023/10/15 03:38:14;;;;;;;;;;;6.70;99.90;;;;;;5113500;28;19928;-51
2023/10/15 03:40:46;;;;;;;;;;;6.70;99.90;;;;;;5117837;27;19919;-51
2023/10/15 03:43:21;;;;;;;;;;;6.60;99.90;;;;;;5134394;27;19956;-50
2023/10/15 03:45:53;;;;;;;;;;;6.60;99.90;;;;;;5134089;27;19915;-50
2023/10/15 03:48:21;;;;;;;;;;;6.50;99.90;;;;;;5134220;27;20338;-47
2023/10/15 03:50:55;;;;;;;;;;;6.50;99.90;;;;;;5113942;28;20350;-50
2023/10/15 03:53:27;;;;;;;;;;;6.40;99.90;;;;;;5113691;28;19908;-47
2023/10/15 03:55:56;;;;;;;;;;;6.40;99.90;;;;;;5112953;28;20017;-48
2023/10/15 03:58:23;;;;;;;;;;;6.40;99.90;;;;;;5113438;28;19935;-50
2023/10/15 04:00:54;;;;;;;;;;;6.40;99.90;;;;;;5113422;28;19915;-57
2023/10/15 04:03:28;;;;;;;;;;;6.30;99.90;;;;;;5113460;28;19908;-56
2023/10/15 04:06:00;;;;;;;;;;;6.30;99.90;;;;;;5112589;28;19919;-44
2023/10/15 04:08:26;;;;;;;;;;;6.30;99.90;;;;;;5121365;27;19911;-45
2023/10/15 04:10:54;;;;;;;;;;;6.30;99.90;;;;;;5128760;27;20289;-46
2023/10/15 04:13:20;;;;;;;;;;;6.30;99.90;;;;;;5129624;27;19918;-45
2023/10/15 04:15:46;;;;;;;;;;;6.30;99.90;;;;;;5133738;27;19907;-46
2023/10/15 04:18:11;;;;;;;;;;;6.30;99.90;;;;;;5133900;27;19908;-47
2023/10/15 04:20:41;;;;;;;;;;;6.30;99.90;;;;;;5131918;28;20002;-44
2023/10/15 04:23:13;;;;;;;;;;;6.20;99.90;;;;;;5133728;28;19990;-44
2023/10/15 04:25:39;;;;;;;;;;;6.20;99.90;;;;;;5129452;27;19976;-47
2023/10/15 04:28:14;;;;;;;;;;;6.30;99.90;;;;;;5116867;28;19912;-45
2023/10/15 04:30:40;;;;;;;;;;;6.30;99.90;;;;;;5116418;27;19911;-45
2023/10/15 04:33:14;;;;;;;;;;;6.40;99.90;;;;;;5117522;28;19908;-46
2023/10/15 04:35:43;;;;;;;;;;;6.50;99.90;;;;;;5116758;27;19965;-46
2023/10/15 04:38:08;;;;;;;;;;;6.50;99.90;;;;;;5116948;28;20362;-47
2023/10/15 04:43:21;;;;;;;;;;;6.50;99.90;;;;;;5117652;28;19977;-48
2023/10/15 04:45:49;;;;;;;;;;;6.60;99.90;;;;;;5117091;28;19955;-45
2023/10/15 04:48:15;;;;;;;;;;;6.50;99.90;;;;;;5117201;28;19923;-45
2023/10/15 04:50:43;;;;;;;;;;;6.50;99.90;;;;;;5116460;28;19965;-45
2023/10/15 04:53:13;;;;;;;;;;;6.50;99.90;;;;;;5116932;28;19908;-46
2023/10/15 04:55:42;;;;;;;;;;;6.50;99.90;;;;;;5115897;27;19951;-46
2023/10/15 04:58:08;;;;;;;;;;;6.40;99.90;;;;;;5117752;27;19934;-45
2023/10/15 05:00:35;;;;;;;;;;;6.40;99.90;;;;;;5116974;28;19908;-46
2023/10/15 05:03:01;;;;;;;;;;;6.40;99.90;;;;;;5116732;28;19912;-45
2023/10/15 05:05:26;;;;;;;;;;;6.40;99.90;;;;;;5116033;27;19964;-46
2023/10/15 05:07:57;;;;;;;;;;;6.40;99.90;;;;;;5125311;27;19923;-45
2023/10/15 05:10:23;;;;;;;;;;;6.30;99.90;;;;;;5131567;27;19911;-46
2023/10/15 05:12:51;;;;;;;;;;;6.30;99.90;;;;;;5116611;28;19930;-45
2023/10/15 05:15:18;;;;;;;;;;;6.30;99.90;;;;;;5116678;28;19910;-45
2023/10/15 05:17:46;;;;;;;;;;;6.30;99.90;;;;;;5116578;28;19908;-47
2023/10/15 05:20:13;;;;;;;;;;;6.30;99.90;;;;;;5128393;27;19918;-45
2023/10/15 05:22:39;;;;;;;;;;;6.40;99.90;;;;;;5116312;28;19912;-47
2023/10/15 05:25:05;;;;;;;;;;;6.40;99.90;;;;;;5133156;27;19924;-45
2023/10/15 05:27:32;;;;;;;;;;;6.50;99.90;;;;;;5116387;28;20440;-45
2023/10/15 05:29:58;;;;;;;;;;;6.60;99.90;;;;;;5116236;28;19912;-46
2023/10/15 05:32:24;;;;;;;;;;;6.60;99.90;;;;;;5116364;28;19961;-46
2023/10/15 05:34:49;;;;;;;;;;;6.70;99.90;;;;;;5116164;28;19973;-45
2023/10/15 05:37:16;;;;;;;;;;;6.70;99.90;;;;;;5114981;27;19976;-47
2023/10/15 05:39:41;;;;;;;;;;;6.80;99.90;;;;;;5116066;28;19969;-46
2023/10/15 05:42:07;;;;;;;;;;;6.80;99.90;;;;;;5134626;27;20362;-46
2023/10/15 05:44:34;;;;;;;;;;;6.80;99.90;;;;;;5136737;27;19907;-46
2023/10/15 05:47:00;;;;;;;;;;;6.80;99.90;;;;;;5136466;27;19915;-46
2023/10/15 05:49:25;;;;;;;;;;;6.90;99.90;;;;;;5136424;27;19914;-45
2023/10/15 05:51:51;;;;;;;;;;;6.90;99.90;;;;;;5124171;27;20006;-45
2023/10/15 05:54:17;;;;;;;;;;;6.90;99.90;;;;;;5127284;27;20029;-47
2023/10/15 05:56:42;;;;;;;;;;;7.00;99.90;;;;;;5124007;27;20065;-47
2023/10/15 05:59:08;;;;;;;;;;;7.00;99.90;;;;;;5115868;28;19908;-46
2023/10/15 06:01:33;;;;;;;;;;;7.00;99.90;;;;;;5115750;28;19908;-45
2023/10/15 06:03:59;;;;;;;;;;;7.00;99.90;;;;;;5115484;28;19914;-44
2023/10/15 06:06:25;;;;;;;;;;;7.00;99.90;;;;;;5114934;27;19955;-45
2023/10/15 06:08:52;;;;;;;;;;;7.00;99.90;;;;;;5135317;27;19947;-45
2023/10/15 06:11:17;;;;;;;;;;;7.00;99.90;;;;;;5127875;27;19973;-47
2023/10/15 06:13:43;;;;;;;;;;;6.90;99.90;;;;;;5115492;28;20255;-45
2023/10/15 06:16:08;;;;;;;;;;;6.90;99.90;;;;;;5115505;28;19908;-46
2023/10/15 06:18:34;;;;;;;;;;;6.90;99.90;;;;;;5115385;28;20007;-46
2023/10/15 06:20:59;;;;;;;;;;;7.00;99.90;;;;;;5114396;28;19916;-47
2023/10/15 06:23:25;;;;;;;;;;;6.90;99.90;;;;;;5115119;27;19908;-45
2023/10/15 06:25:51;;;;;;;;;;;6.90;99.90;;;;;;5115916;27;19931;-46
2023/10/15 06:28:17;;;;;;;;;;;7.00;99.90;;;;;;5118000;27;19915;-44
2023/10/15 06:30:43;;;;;;;;;;;7.00;99.90;;;;;;5123611;27;20251;-45
2023/10/15 06:33:09;;;;;;;;;;;7.00;99.90;;;;;;5115040;28;19977;-45
2023/10/15 06:35:34;;;;;;;;;;;7.10;99.90;;;;;;5115548;27;20497;-47
2023/10/15 06:37:59;;;;;;;;;;;7.10;99.90;;;;;;5114593;28;19920;-47
2023/10/15 06:40:26;;;;;;;;;;;7.20;99.90;;;;;;5115971;27;19936;-45
2023/10/15 06:42:52;;;;;;;;;;;7.20;99.90;;;;;;5117288;27;20428;-45
2023/10/15 06:45:21;;;;;;;;;;;7.20;99.90;;;;;;5114247;28;19916;-45
2023/10/15 06:47:51;;;;;;;;;;;7.20;99.90;;;;;;5131477;27;19911;-46
2023/10/15 06:50:19;;;;;;;;;;;7.20;99.90;;;;;;5134695;27;19907;-46
2023/10/15 06:52:45;;;;;;;;;;;7.20;99.90;;;;;;5134173;27;20014;-45
2023/10/15 06:55:13;;;;;;;;;;;7.20;99.90;;;;;;5124039;27;20007;-46
2023/10/15 06:57:40;;;;;;;;;;;7.20;99.90;;;;;;5116162;27;20380;-46
2023/10/15 07:00:06;;;;;;;;;;;7.30;99.90;;;;;;5124568;27;19919;-45
2023/10/15 07:02:31;;;;;;;;;;;7.30;99.90;;;;;;5129591;27;19916;-45
2023/10/15 07:04:56;;;;;;;;;;;7.30;99.90;;;;;;5134761;27;19926;-45
2023/10/15 07:07:24;;;;;;;;;;;7.30;99.90;;;;;;5135045;27;19912;-46
2023/10/15 07:09:51;;;;;;;;;;;7.30;99.90;;;;;;5127655;27;19912;-46
2023/10/15 07:12:16;;;;;;;;;;;7.40;99.90;;;;;;5127715;27;19916;-46
2023/10/15 07:14:42;;;;;;;;;;;7.40;99.90;;;;;;5135014;27;19964;-46
2023/10/15 07:17:07;;;;;;;;;;;7.40;99.90;;;;;;5134727;27;19998;-45
2023/10/15 07:19:33;;;;;;;;;;;7.40;99.90;;;;;;5134718;27;20267;-46
2023/10/15 07:21:59;;;;;;;;;;;7.50;99.90;;;;;;5119684;27;20244;-47
2023/10/15 07:24:24;;;;;;;;;;;7.60;99.90;;;;;;5120204;27;20322;-46
2023/10/15 07:26:52;;;;;;;;;;;7.60;99.90;;;;;;5132839;27;19961;-45
2023/10/15 07:29:18;;;;;;;;;;;7.60;99.90;;;;;;5133553;27;19911;-45
2023/10/15 07:31:44;;;;;;;;;;;7.60;99.90;;;;;;5123506;27;19958;-46
2023/10/15 07:34:10;;;;;;;;;;;7.50;99.90;;;;;;5123374;27;20007;-46
2023/10/15 07:36:36;;;;;;;;;;;7.60;99.90;;;;;;5117273;27;19971;-46
2023/10/15 07:39:06;;;;;;;;;;;7.50;99.90;;;;;;5116666;27;19947;-46
2023/10/15 07:41:34;;;;;;;;;;;7.50;99.90;;;;;;5115699;27;19912;-45
2023/10/15 07:44:01;;;;;;;;;;;7.50;99.90;;;;;;5128077;27;20056;-46
2023/10/15 07:46:28;;;;;;;;;;;7.50;99.90;;;;;;5114995;27;20381;-47
2023/10/15 07:48:54;;;;;;;;;;;7.50;99.90;;;;;;5113044;27;20000;-47
2023/10/15 07:51:19;;;;;;;;;;;7.40;99.90;;;;;;5118924;27;20412;-51
2023/10/15 07:53:44;;;;;;;;;;;7.30;99.90;;;;;;5127837;27;19908;-50
2023/10/15 07:56:14;;;;;;;;;;;7.30;99.90;;;;;;5132640;27;19963;-48
2023/10/15 07:58:40;;;;;;;;;;;7.20;99.90;;;;;;5132327;27;19934;-48
2023/10/15 08:01:05;;;;;;;;;;;7.20;99.90;;;;;;5124116;27;20369;-49
2023/10/15 08:03:32;;;;;;;;;;;7.20;99.90;;;;;;5113377;28;19995;-51
2023/10/15 08:06:00;;;;;;;;;;;7.20;99.90;;;;;;5113319;28;19961;-47
2023/10/15 08:08:25;;;;;;;;;;;7.20;99.90;;;;;;5113370;28;19908;-47
2023/10/15 08:10:52;;;;;;;;;;;7.10;99.90;;;;;;5113261;28;19915;-48
2023/10/15 08:13:18;;;;;;;;;;;7.00;99.90;;;;;;5113243;28;19908;-48
2023/10/15 08:15:44;;;;;;;;;;;7.10;99.90;;;;;;5113257;28;19976;-46
2023/10/15 08:18:10;;;;;;;;;;;7.00;99.90;;;;;;5116120;28;20353;-47
2023/10/15 08:20:35;;;;;;;;;;;7.10;99.90;;;;;;5115971;28;19964;-47
2023/10/15 08:23:01;;;;;;;;;;;7.10;99.90;;;;;;5115750;28;19934;-47
2023/10/15 08:25:26;;;;;;;;;;;7.20;99.90;;;;;;5120317;28;20290;-47
2023/10/15 08:27:52;;;;;;;;;;;7.30;99.90;;;;;;5133590;28;19918;-46
2023/10/15 08:30:18;;;;;;;;;;;7.30;99.90;;;;;;5133789;28;20362;-45
2023/10/15 08:32:44;;;;;;;;;;;7.40;99.90;;;;;;5133859;28;19907;-46
2023/10/15 08:35:16;;;;;;;;;;;7.50;99.90;;;;;;5132650;28;19907;-46
2023/10/15 08:37:42;;;;;;;;;;;7.50;99.90;;;;;;5133287;28;19994;-46
2023/10/15 08:40:08;;;;;;;;;;;7.60;99.90;;;;;;5130280;28;19962;-47
2023/10/15 08:42:42;;;;;;;;;;;7.70;99.90;;;;;;5125062;28;20389;-46
2023/10/15 08:45:07;;;;;;;;;;;7.80;99.90;;;;;;5130132;28;19927;-46
2023/10/15 08:47:34;;;;;;;;;;;8.00;99.90;;;;;;5119214;28;19919;-45
2023/10/15 08:50:00;;;;;;;;;;;8.10;99.90;;;;;;5133383;28;20324;-46
2023/10/15 08:52:26;;;;;;;;;;;8.30;99.90;;;;;;5104993;28;20285;-48
2023/10/15 08:54:53;;;;;;;;;;;8.50;99.90;;;;;;5112848;28;20052;-47
2023/10/15 08:57:19;;;;;;;;;;;8.40;99.90;;;;;;5112979;28;19911;-46
2023/10/15 08:59:44;;;;;;;;;;;8.40;99.90;;;;;;5112877;28;19994;-47
2023/10/15 09:02:10;;;;;;;;;;;8.30;99.90;;;;;;5112971;28;20339;-46
2023/10/15 09:04:35;;;;;;;;;;;8.20;99.90;;;;;;5120244;28;19908;-46
2023/10/15 09:07:02;;;;;;;;;;;8.20;99.90;;;;;;5133338;28;20385;-46
2023/10/15 09:09:33;;;;;;;;;;;8.30;99.90;;;;;;5122814;28;19907;-46
2023/10/15 09:11:59;;;;;;;;;;;8.40;99.90;;;;;;5112713;28;19914;-48
2023/10/15 09:14:37;;;;;;;;;;;8.60;99.90;;;;;;5116704;28;20352;-46
2023/10/15 09:17:03;;;;;;;;;;;8.70;99.90;;;;;;5116564;28;20188;-46
2023/10/15 09:19:31;;;;;;;;;;;8.80;99.90;;;;;;5116635;28;20459;-47
2023/10/15 09:21:57;;;;;;;;;;;8.80;99.90;;;;;;5116427;28;20190;-48
2023/10/15 09:24:23;;;;;;;;;;;8.80;99.90;;;;;;5116474;28;19973;-46
2023/10/15 09:26:48;;;;;;;;;;;8.80;99.90;;;;;;5116723;27;20319;-46
2023/10/15 09:29:19;;;;;;;;;;;8.80;99.90;;;;;;5116307;28;19930;-47
2023/10/15 09:31:45;;;;;;;;;;;8.90;99.90;;;;;;5116193;28;19915;-47
2023/10/15 09:34:11;;;;;;;;;;;8.90;99.90;;;;;;5116268;28;19915;-47
2023/10/15 09:36:38;;;;;;;;;;;9.00;99.90;;;;;;5116024;28;20362;-46
2023/10/15 09:39:13;;;;;;;;;;;9.10;99.90;;;;;;5116137;28;20350;-46
2023/10/15 09:41:41;;;;;;;;;;;9.20;99.90;;;;;;5117630;27;19965;-46
2023/10/15 09:44:19;;;;;;;;;;;9.30;99.90;;;;;;5125179;27;19919;-46
2023/10/15 09:46:44;;;;;;;;;;;9.40;99.90;;;;;;5122883;27;19923;-46
2023/10/15 09:49:11;;;;;;;;;;;9.50;99.90;;;;;;5123478;27;19911;-47
2023/10/15 09:51:37;;;;;;;;;;;9.60;99.90;;;;;;5117551;27;19911;-47
2023/10/15 09:54:03;;;;;;;;;;;9.70;99.90;;;;;;5124722;27;19918;-48
2023/10/15 09:56:29;;;;;;;;;;;9.80;99.90;;;;;;5136384;27;19915;-46
2023/10/15 09:58:55;;;;;;;;;;;9.80;99.90;;;;;;5121657;27;19912;-45
2023/10/15 10:01:26;;;;;;;;;;;9.80;99.90;;;;;;5131867;27;19907;-46
2023/10/15 10:03:59;;;;;;;;;;;9.80;99.90;;;;;;5136252;27;19907;-46
2023/10/15 10:06:37;;;;;;;;;;;9.80;99.90;;;;;;5136235;27;19923;-46
2023/10/15 10:09:24;;;;;;;;;;;9.80;99.90;;;;;;5136076;27;19915;-46
2023/10/15 10:11:57;;;;;;;;;;;9.80;99.90;;;;;;5115455;28;20358;-47
2023/10/15 10:14:25;;;;;;;;;;;9.80;99.90;;;;;;5122140;27;19994;-46
2023/10/15 10:16:51;;;;;;;;;;;9.80;99.90;;;;;;5125760;27;20290;-49
2023/10/15 10:19:17;;;;;;;;;;;9.80;99.90;;;;;;5132768;27;20405;-45
2023/10/15 10:21:47;;;;;;;;;;;9.90;99.90;;;;;;5121434;27;19915;-46
2023/10/15 10:24:15;;;;;;;;;;;10.10;99.90;;;;;;5115207;27;19912;-46
2023/10/15 10:26:41;;;;;;;;;;;10.30;99.90;;;;;;5131398;27;19994;-47
2023/10/15 10:29:07;;;;;;;;;;;10.40;99.90;;;;;;5125982;27;20361;-46
2023/10/15 10:31:39;;;;;;;;;;;10.40;99.90;;;;;;5115870;27;20415;-46
2023/10/15 10:34:04;;;;;;;;;;;10.50;99.90;;;;;;5117553;27;19919;-46
2023/10/15 10:36:30;;;;;;;;;;;10.70;99.90;;;;;;5116706;27;19923;-46
2023/10/15 10:39:10;;;;;;;;;;;10.90;99.90;;;;;;5125217;27;19947;-46
2023/10/15 10:41:37;;;;;;;;;;;10.90;99.90;;;;;;5133813;27;19981;-45
2023/10/15 10:44:06;;;;;;;;;;;10.90;99.90;;;;;;5119048;27;20384;-45
2023/10/15 10:46:39;;;;;;;;;;;10.80;99.90;;;;;;5134351;27;20035;-45
2023/10/15 10:49:05;;;;;;;;;;;10.70;99.90;;;;;;5119768;27;19968;-48
2023/10/15 10:51:36;;;;;;;;;;;10.30;99.90;;;;;;5129903;27;20282;-47
2023/10/15 10:54:03;;;;;;;;;;;10.00;99.90;;;;;;5128522;27;19918;-47
2023/10/15 10:56:40;;;;;;;;;;;9.70;99.90;;;;;;5125633;27;20014;-48
2023/10/15 10:59:10;;;;;;;;;;;9.50;99.90;;;;;;5135122;27;19911;-46
2023/10/15 11:01:39;;;;;;;;;;;9.60;99.90;;;;;;5114867;27;19941;-46
2023/10/15 11:04:05;;;;;;;;;;;9.70;99.90;;;;;;5114412;28;20286;-46
2023/10/15 11:06:34;;;;;;;;;;;9.80;99.90;;;;;;5114461;28;19919;-46
2023/10/15 11:09:00;;;;;;;;;;;9.90;99.90;;;;;;5115306;27;20248;-47
2023/10/15 11:11:26;;;;;;;;;;;10.10;99.90;;;;;;5114670;27;19907;-48
2023/10/15 11:13:54;;;;;;;;;;;10.20;99.90;;;;;;5134798;27;19908;-46
2023/10/15 11:16:20;;;;;;;;;;;10.30;99.90;;;;;;5134851;27;19918;-47
2023/10/15 11:18:46;;;;;;;;;;;10.30;99.90;;;;;;5122215;27;19916;-45
2023/10/15 11:21:12;;;;;;;;;;;10.50;99.90;;;;;;5116600;27;19916;-46
2023/10/15 11:23:38;;;;;;;;;;;10.60;99.90;;;;;;5124154;27;19911;-46
2023/10/15 11:26:04;;;;;;;;;;;10.70;99.90;;;;;;5117688;27;19920;-45
2023/10/15 11:28:29;;;;;;;;;;;10.90;99.90;;;;;;5112622;27;20388;-45
2023/10/15 11:30:55;;;;;;;;;;;11.00;99.90;;;;;;5113964;28;19912;-45
2023/10/15 11:33:21;;;;;;;;;;;11.10;99.90;;;;;;5113976;28;19908;-45
2023/10/15 11:35:51;;;;;;;;;;;11.10;99.90;;;;;;5124930;27;19922;-46
2023/10/15 11:38:17;;;;;;;;;;;11.20;99.90;;;;;;5121444;27;20014;-46
2023/10/15 11:40:45;;;;;;;;;;;11.40;99.90;;;;;;5117047;27;20488;-44
2023/10/15 11:43:19;;;;;;;;;;;11.50;99.90;;;;;;5113859;28;19908;-45
2023/10/15 11:45:45;;;;;;;;;;;11.60;99.90;;;;;;5114049;27;19988;-45
2023/10/15 11:48:13;;;;;;;;;;;11.70;99.90;;;;;;5132995;27;20389;-45
2023/10/15 11:50:40;;;;;;;;;;;11.70;99.90;;;;;;5133369;27;19912;-45
2023/10/15 11:53:35;;;;;;;;;;;11.70;99.90;;;;;;5117445;27;19923;-46
2023/10/15 11:56:02;;;;;;;;;;;11.80;99.90;;;;;;5095550;28;19908;-46
2023/10/15 11:58:31;;;;;;;;;;;11.90;99.90;;;;;;5124125;27;19934;-46
2023/10/15 12:00:58;;;;;;;;;;;11.90;99.90;;;;;;5129648;27;19922;-45
2023/10/15 12:03:24;;;;;;;;;;;11.90;99.90;;;;;;5134073;27;19911;-45
2023/10/15 12:05:51;;;;;;;;;;;11.90;99.90;;;;;;5133843;27;20018;-46
2023/10/15 12:08:21;;;;;;;;;;;12.00;99.90;;;;;;5118424;27;19912;-45
2023/10/15 12:10:47;;;;;;;;;;;12.00;99.90;;;;;;5113255;28;19953;-45
2023/10/15 12:13:14;;;;;;;;;;;12.20;99.90;;;;;;5129785;27;19939;-45
2023/10/15 12:15:40;;;;;;;;;;;12.30;99.90;;;;;;5131914;27;19994;-45
2023/10/15 12:18:05;;;;;;;;;;;12.30;99.90;;;;;;5115362;28;20007;-45
2023/10/15 12:20:31;;;;;;;;;;;12.50;99.90;;;;;;5113318;28;19934;-45
2023/10/15 12:22:56;;;;;;;;;;;12.60;99.90;;;;;;5115572;28;19939;-46
2023/10/15 12:25:22;;;;;;;;;;;12.60;99.90;;;;;;5131154;28;20025;-48
2023/10/15 12:27:48;;;;;;;;;;;12.40;99.90;;;;;;5133750;28;19989;-45
2023/10/15 12:30:23;;;;;;;;;;;12.10;99.90;;;;;;5133723;28;20309;-46
2023/10/15 12:32:53;;;;;;;;;;;11.90;99.90;;;;;;5132022;28;19919;-46
2023/10/15 12:35:22;;;;;;;;;;;11.80;99.90;;;;;;5133795;28;19919;-46
2023/10/15 12:37:49;;;;;;;;;;;11.90;99.90;;;;;;5127476;28;20268;-45
2023/10/15 12:40:29;;;;;;;;;;;11.90;99.90;;;;;;5113047;28;20374;-45
2023/10/15 12:42:54;;;;;;;;;;;11.80;99.90;;;;;;5113060;28;19912;-45
2023/10/15 12:45:20;;;;;;;;;;;11.90;99.90;;;;;;5112929;28;20331;-45
2023/10/15 12:47:46;;;;;;;;;;;12.00;99.90;;;;;;5115649;27;19908;-45
2023/10/15 12:50:14;;;;;;;;;;;12.10;99.90;;;;;;5129689;27;19934;-46
2023/10/15 12:52:42;;;;;;;;;;;12.20;99.90;;;;;;5134155;27;19916;-46
2023/10/15 12:55:07;;;;;;;;;;;12.30;99.90;;;;;;5120340;27;19956;-45
2023/10/15 12:57:33;;;;;;;;;;;12.40;99.90;;;;;;5132999;27;19931;-45
2023/10/15 12:59:59;;;;;;;;;;;12.70;99.90;;;;;;5137436;27;20384;-45
2023/10/15 13:02:25;;;;;;;;;;;12.70;99.90;;;;;;5128186;27;20507;-46
2023/10/15 13:04:51;;;;;;;;;;;12.90;99.90;;;;;;5116743;28;20164;-47
2023/10/15 13:07:16;;;;;;;;;;;12.80;99.90;;;;;;5116827;28;19977;-45
2023/10/15 13:09:43;;;;;;;;;;;12.60;99.90;;;;;;5118591;27;20354;-47
2023/10/15 13:12:10;;;;;;;;;;;12.60;99.90;;;;;;5116821;28;19933;-47
2023/10/15 13:14:36;;;;;;;;;;;12.40;99.90;;;;;;5116749;28;19908;-47
2023/10/15 13:17:02;;;;;;;;;;;12.30;99.90;;;;;;5120724;27;19914;-45
2023/10/15 13:19:28;;;;;;;;;;;12.20;99.90;;;;;;5137075;27;19911;-46
2023/10/15 13:21:53;;;;;;;;;;;12.40;99.90;;;;;;5137006;27;19959;-45
2023/10/15 13:24:18;;;;;;;;;;;12.70;99.90;;;;;;5123937;27;19912;-45
2023/10/15 13:26:45;;;;;;;;;;;12.70;99.90;;;;;;5116409;28;20291;-47
2023/10/15 13:29:11;;;;;;;;;;;12.90;99.90;;;;;;5116484;28;19912;-44
2023/10/15 13:31:36;;;;;;;;;;;13.30;99.90;;;;;;5116404;27;20303;-45
2023/10/15 13:34:05;;;;;;;;;;;13.70;99.90;;;;;;5118271;27;19916;-47
2023/10/15 13:36:31;;;;;;;;;;;14.10;99.90;;;;;;5135011;27;20289;-46
2023/10/15 13:38:57;;;;;;;;;;;14.20;99.90;;;;;;5127799;27;19919;-47
2023/10/15 13:41:24;;;;;;;;;;;14.60;99.90;;;;;;5115431;28;20438;-46
2023/10/15 13:43:50;;;;;;;;;;;14.80;99.90;;;;;;5118231;27;19919;-45
2023/10/15 13:46:15;;;;;;;;;;;15.00;99.90;;;;;;5115628;27;19920;-45
2023/10/15 13:48:41;;;;;;;;;;;15.40;99.90;;;;;;5129605;27;20011;-46
2023/10/15 13:51:07;;;;;;;;;;;15.50;99.90;;;;;;5136692;27;19935;-45
2023/10/15 13:53:35;;;;;;;;;;;15.60;99.90;;;;;;5133933;27;20327;-46
2023/10/15 13:56:00;;;;;;;;;;;15.50;99.90;;;;;;5115770;28;19915;-47
2023/10/15 13:58:25;;;;;;;;;;;15.10;99.90;;;;;;5115750;28;19908;-47
2023/10/15 14:00:51;;;;;;;;;;;15.00;99.90;;;;;;5115708;28;20004;-45
2023/10/15 14:03:16;;;;;;;;;;;15.20;99.90;;;;;;5123893;27;19911;-46
2023/10/15 14:05:43;;;;;;;;;;;15.20;99.90;;;;;;5127085;27;19920;-46
2023/10/15 14:08:08;;;;;;;;;;;15.00;99.90;;;;;;5120851;27;20003;-47
2023/10/15 14:10:35;;;;;;;;;;;15.30;99.90;;;;;;5131006;27;20462;-45
2023/10/15 14:13:00;;;;;;;;;;;15.30;99.90;;;;;;5126626;27;20388;-47
2023/10/15 14:15:26;;;;;;;;;;;15.00;99.90;;;;;;5133515;27;19942;-48
2023/10/15 14:17:51;;;;;;;;;;;14.50;99.90;;;;;;5131481;27;20344;-46
2023/10/15 14:20:18;;;;;;;;;;;14.20;99.90;;;;;;5132992;27;20348;-46
2023/10/15 14:22:44;;;;;;;;;;;13.90;99.90;;;;;;5131982;27;20010;-46
2023/10/15 14:25:10;;;;;;;;;;;13.50;99.90;;;;;;5119882;27;20353;-47
2023/10/15 14:27:36;;;;;;;;;;;13.30;99.90;;;;;;5112559;28;19915;-45
2023/10/15 14:30:02;;;;;;;;;;;13.70;99.90;;;;;;5111791;28;19954;-44
2023/10/15 14:32:28;;;;;;;;;;;14.20;99.90;;;;;;5112414;27;20127;-45
2023/10/15 14:34:54;;;;;;;;;;;14.50;99.90;;;;;;5114224;27;19920;-46
2023/10/15 14:37:19;;;;;;;;;;;15.00;99.90;;;;;;5112211;28;19924;-45
2023/10/15 14:39:44;;;;;;;;;;;15.00;98.40;;;;;;5112556;27;20439;-46